Time;durP1;ratioP1;P1;durP2;ratioP2;P2;SDS_P1;SDS_P2;PMS_P1;PMS_P2;Temp;Humidity;BMP_temperature;BMP_pressure;BME280_temperature;BME280_humidity;BME280_pressure;Samples;Min_cycle;Max_cycle;Signal;HPM_P1;HPM_P2
2021/11/05 00:00:24;;;;;;;2.77;2.03;;;;;;;;;;5097267;28;20684;-65
2021/11/05 00:02:54;;;;;;;2.87;2.10;;;;;;;;;;5096919;28;20731;-65
2021/11/05 00:05:22;;;;;;;8.03;7.23;;;;;;;;;;5097567;28;20237;-66
2021/11/05 00:07:50;;;;;;;6.13;4.10;;;;;;;;;;5097405;28;20572;-65
2021/11/05 00:10:20;;;;;;;2.57;2.13;;;;;;;;;;5100612;28;20292;-65
2021/11/05 00:12:48;;;;;;;4.27;2.17;;;;;;;;;;5101666;28;20261;-66
2021/11/05 00:15:17;;;;;;;1.93;1.83;;;;;;;;;;5101271;28;20661;-65
2021/11/05 00:17:45;;;;;;;2.87;2.10;;;;;;;;;;5100933;28;20654;-66
2021/11/05 00:20:14;;;;;;;2.23;2.03;;;;;;;;;;5101391;28;20214;-65
2021/11/05 00:22:42;;;;;;;3.77;2.03;;;;;;;;;;5101187;28;20316;-65
2021/11/05 00:25:10;;;;;;;2.47;1.60;;;;;;;;;;5101348;28;20209;-66
2021/11/05 00:27:39;;;;;;;1.80;1.70;;;;;;;;;;5101233;28;20265;-65
2021/11/05 00:30:09;;;;;;;2.20;1.80;;;;;;;;;;5082759;28;20244;-65
2021/11/05 00:32:37;;;;;;;2.80;2.20;;;;;;;;;;5080597;28;20289;-65
2021/11/05 00:35:09;;;;;;;1.80;1.70;;;;;;;;;;5080436;28;20287;-65
2021/11/05 00:37:37;;;;;;;2.57;1.97;;;;;;;;;;5080652;28;20210;-65
2021/11/05 00:40:06;;;;;;;2.83;1.80;;;;;;;;;;5097728;28;20632;-65
2021/11/05 00:42:34;;;;;;;3.27;1.80;;;;;;;;;;5087584;28;20313;-65
2021/11/05 00:45:04;;;;;;;1.60;1.50;;;;;;;;;;5080693;28;20212;-65
2021/11/05 00:47:32;;;;;;;4.13;1.83;;;;;;;;;;5095103;28;20236;-65
2021/11/05 00:50:00;;;;;;;2.53;1.73;;;;;;;;;;5100931;28;20229;-66
2021/11/05 00:52:28;;;;;;;2.80;1.50;;;;;;;;;;5100488;28;20638;-65
2021/11/05 00:54:56;;;;;;;3.40;1.83;;;;;;;;;;5100525;28;20201;-66
2021/11/05 00:57:24;;;;;;;2.20;1.83;;;;;;;;;;5100637;28;20206;-65
2021/11/05 00:59:52;;;;;;;4.43;1.90;;;;;;;;;;5100358;28;20666;-65
2021/11/05 01:02:22;;;;;;;2.30;1.87;;;;;;;;;;5100053;28;20263;-65
2021/11/05 01:04:50;;;;;;;4.87;2.13;;;;;;;;;;5100304;28;20231;-65
2021/11/05 01:07:18;;;;;;;4.10;2.37;;;;;;;;;;5100612;28;20284;-65
2021/11/05 01:09:46;;;;;;;2.23;2.00;;;;;;;;;;5100507;28;20236;-66
2021/11/05 01:12:14;;;;;;;3.77;2.17;;;;;;;;;;5099975;28;20728;-66
2021/11/05 01:14:42;;;;;;;1.97;1.60;;;;;;;;;;5100314;28;20288;-65
2021/11/05 01:17:10;;;;;;;3.20;1.80;;;;;;;;;;5100239;28;20212;-66
2021/11/05 01:19:40;;;;;;;2.87;2.00;;;;;;;;;;5099723;28;20232;-66
2021/11/05 01:22:08;;;;;;;3.73;1.50;;;;;;;;;;5099028;28;20237;-65
2021/11/05 01:24:36;;;;;;;3.30;2.10;;;;;;;;;;5099872;28;20210;-65
2021/11/05 01:27:04;;;;;;;2.67;2.07;;;;;;;;;;5100103;28;20209;-65
2021/11/05 01:29:32;;;;;;;1.50;1.40;;;;;;;;;;5099695;28;20768;-66
2021/11/05 01:32:00;;;;;;;2.40;1.83;;;;;;;;;;5099914;28;20214;-65
2021/11/05 01:34:28;;;;;;;2.20;1.80;;;;;;;;;;5099446;28;20215;-65
2021/11/05 01:36:58;;;;;;;2.47;1.80;;;;;;;;;;5099835;28;20219;-66
2021/11/05 01:39:26;;;;;;;2.40;2.03;;;;;;;;;;5087716;28;20697;-65
2021/11/05 01:41:56;;;;;;;3.93;1.90;;;;;;;;;;5079616;28;20263;-66
2021/11/05 01:44:25;;;;;;;4.13;1.77;;;;;;;;;;5078995;28;20264;-65
2021/11/05 01:46:53;;;;;;;1.80;1.70;;;;;;;;;;5088210;28;20243;-65
2021/11/05 01:49:21;;;;;;;3.47;2.17;;;;;;;;;;5098899;28;20641;-65
2021/11/05 01:51:51;;;;;;;1.83;1.73;;;;;;;;;;5098975;28;20288;-66
2021/11/05 01:54:20;;;;;;;4.47;2.10;;;;;;;;;;5099053;28;20735;-66
2021/11/05 01:56:49;;;;;;;3.37;2.10;;;;;;;;;;5099124;28;20284;-65
2021/11/05 01:59:21;;;;;;;3.43;2.10;;;;;;;;;;5099163;28;20234;-65
2021/11/05 02:01:49;;;;;;;2.90;2.37;;;;;;;;;;5098759;28;20255;-65
2021/11/05 02:04:17;;;;;;;2.10;1.90;;;;;;;;;;5098567;28;20670;-65
2021/11/05 02:06:46;;;;;;;2.47;1.90;;;;;;;;;;5099188;28;20288;-65
2021/11/05 02:09:15;;;;;;;3.23;2.00;;;;;;;;;;5099117;28;20225;-66
2021/11/05 02:11:44;;;;;;;4.43;2.60;;;;;;;;;;5099060;28;20206;-65
2021/11/05 02:14:14;;;;;;;3.20;2.00;;;;;;;;;;5099198;28;20208;-65
2021/11/05 02:16:43;;;;;;;3.30;2.20;;;;;;;;;;5098969;28;20641;-65
2021/11/05 02:19:12;;;;;;;3.40;2.50;;;;;;;;;;5098867;28;20228;-65
2021/11/05 02:21:41;;;;;;;2.57;2.37;;;;;;;;;;5098922;28;20226;-65
2021/11/05 02:24:10;;;;;;;7.27;2.63;;;;;;;;;;5098783;28;20328;-66
2021/11/05 02:26:38;;;;;;;4.40;2.83;;;;;;;;;;5099026;28;20216;-65
2021/11/05 02:29:09;;;;;;;2.63;2.43;;;;;;;;;;5088561;28;20222;-66
2021/11/05 02:31:37;;;;;;;3.27;2.63;;;;;;;;;;5078137;28;20293;-66
2021/11/05 02:34:06;;;;;;;2.73;2.47;;;;;;;;;;5078065;28;20696;-65
2021/11/05 02:36:34;;;;;;;3.17;2.87;;;;;;;;;;5078025;28;20348;-65
2021/11/05 02:39:07;;;;;;;3.10;2.80;;;;;;;;;;5086431;28;20648;-66
2021/11/05 02:41:36;;;;;;;5.47;3.20;;;;;;;;;;5094537;28;20271;-66
2021/11/05 02:44:04;;;;;;;6.70;2.80;;;;;;;;;;5078454;28;20230;-65
2021/11/05 02:46:32;;;;;;;3.20;2.90;;;;;;;;;;5084398;28;20214;-65
2021/11/05 02:49:00;;;;;;;4.00;3.17;;;;;;;;;;5098340;28;20289;-66
2021/11/05 02:51:28;;;;;;;5.43;3.63;;;;;;;;;;5097930;28;20580;-66
2021/11/05 02:53:57;;;;;;;3.87;3.20;;;;;;;;;;5098404;28;20261;-65
2021/11/05 02:56:26;;;;;;;4.23;2.97;;;;;;;;;;5098422;28;20293;-66
2021/11/05 02:58:54;;;;;;;4.67;3.33;;;;;;;;;;5098204;28;20316;-65
2021/11/05 03:01:22;;;;;;;4.60;3.37;;;;;;;;;;5097890;28;20560;-66
2021/11/05 03:03:50;;;;;;;4.50;2.97;;;;;;;;;;5097728;28;20225;-66
2021/11/05 03:06:18;;;;;;;7.40;2.90;;;;;;;;;;5098057;28;20293;-66
2021/11/05 03:08:46;;;;;;;4.17;2.83;;;;;;;;;;5098181;28;20312;-65
2021/11/05 03:11:14;;;;;;;3.17;2.87;;;;;;;;;;5098003;28;20665;-65
2021/11/05 03:13:44;;;;;;;3.87;2.77;;;;;;;;;;5098229;28;20279;-65
2021/11/05 03:16:12;;;;;;;2.70;2.40;;;;;;;;;;5098271;28;20209;-66
2021/11/05 03:18:42;;;;;;;3.80;2.57;;;;;;;;;;5097278;28;20312;-66
2021/11/05 03:21:10;;;;;;;3.20;2.30;;;;;;;;;;5097827;28;20216;-66
2021/11/05 03:23:38;;;;;;;4.10;2.73;;;;;;;;;;5098007;28;20232;-66
2021/11/05 03:26:06;;;;;;;3.70;2.57;;;;;;;;;;5097639;28;20212;-65
2021/11/05 03:28:34;;;;;;;5.17;2.60;;;;;;;;;;5092229;28;20218;-65
2021/11/05 03:31:04;;;;;;;4.03;2.60;;;;;;;;;;5077776;28;20274;-66
2021/11/05 03:33:32;;;;;;;3.73;2.23;;;;;;;;;;5077121;28;20213;-65
2021/11/05 03:36:00;;;;;;;3.77;2.47;;;;;;;;;;5077711;28;20238;-66
2021/11/05 03:38:28;;;;;;;5.13;2.60;;;;;;;;;;5080926;28;20236;-65
2021/11/05 03:40:56;;;;;;;3.13;2.13;;;;;;;;;;5097744;28;20216;-66
2021/11/05 03:43:24;;;;;;;4.07;2.50;;;;;;;;;;5077988;28;20210;-65
2021/11/05 03:45:52;;;;;;;4.43;2.10;;;;;;;;;;5082034;28;20234;-66
2021/11/05 03:48:21;;;;;;;3.13;2.00;;;;;;;;;;5101876;28;20229;-66
2021/11/05 03:50:49;;;;;;;2.13;1.87;;;;;;;;;;5101737;28;20210;-66
2021/11/05 03:53:17;;;;;;;4.40;2.43;;;;;;;;;;5102045;28;20287;-66
2021/11/05 03:55:45;;;;;;;2.87;2.53;;;;;;;;;;5101783;28;20205;-66
2021/11/05 03:58:13;;;;;;;3.10;2.20;;;;;;;;;;5101779;28;20313;-66
2021/11/05 04:00:41;;;;;;;4.07;2.93;;;;;;;;;;5101639;28;20205;-66
2021/11/05 04:03:09;;;;;;;2.90;2.70;;;;;;;;;;5101126;28;20245;-65
2021/11/05 04:05:39;;;;;;;4.00;3.00;;;;;;;;;;5101302;28;20221;-65
2021/11/05 04:08:07;;;;;;;4.57;2.50;;;;;;;;;;5101297;28;20688;-65
2021/11/05 04:10:35;;;;;;;5.73;2.87;;;;;;;;;;5101244;28;20236;-65
2021/11/05 04:13:03;;;;;;;3.77;2.37;;;;;;;;;;5101240;28;20575;-65
2021/11/05 04:15:31;;;;;;;2.93;2.63;;;;;;;;;;5101398;28;20208;-65
2021/11/05 04:17:59;;;;;;;3.57;2.53;;;;;;;;;;5101154;28;20312;-66
2021/11/05 04:20:27;;;;;;;3.70;2.70;;;;;;;;;;5101482;28;20265;-65
2021/11/05 04:22:57;;;;;;;3.13;2.80;;;;;;;;;;5101416;28;20212;-66
2021/11/05 04:25:25;;;;;;;4.37;2.43;;;;;;;;;;5101131;28;20308;-65
2021/11/05 04:27:53;;;;;;;5.97;2.67;;;;;;;;;;5101033;28;20288;-66
2021/11/05 04:30:21;;;;;;;6.07;2.30;;;;;;;;;;5100992;28;20736;-66
2021/11/05 04:32:49;;;;;;;3.00;2.67;;;;;;;;;;5100557;28;20226;-65
2021/11/05 04:35:17;;;;;;;2.60;2.40;;;;;;;;;;5100689;28;20293;-65
2021/11/05 04:37:45;;;;;;;3.07;2.37;;;;;;;;;;5100599;28;20726;-65
2021/11/05 04:40:14;;;;;;;3.20;2.80;;;;;;;;;;5082703;28;20353;-65
2021/11/05 04:42:42;;;;;;;4.07;2.80;;;;;;;;;;5080379;28;20206;-65
2021/11/05 04:45:10;;;;;;;2.27;2.07;;;;;;;;;;5080414;28;20316;-66
2021/11/05 04:47:38;;;;;;;4.40;2.10;;;;;;;;;;5095278;28;20205;-66
2021/11/05 04:50:07;;;;;;;2.47;2.10;;;;;;;;;;5100646;28;20292;-65
2021/11/05 04:52:35;;;;;;;2.80;2.07;;;;;;;;;;5100441;28;20635;-66
2021/11/05 04:55:04;;;;;;;2.37;1.70;;;;;;;;;;5100704;28;20205;-66
2021/11/05 04:57:33;;;;;;;1.83;1.73;;;;;;;;;;5100502;28;20205;-66
2021/11/05 05:00:01;;;;;;;2.30;1.70;;;;;;;;;;5100642;28;20274;-66
2021/11/05 05:02:29;;;;;;;2.00;1.73;;;;;;;;;;5099845;28;20249;-66
2021/11/05 05:04:57;;;;;;;1.97;1.80;;;;;;;;;;5100414;28;20317;-66
2021/11/05 05:07:25;;;;;;;1.57;1.47;;;;;;;;;;5100572;28;20242;-65
2021/11/05 05:09:53;;;;;;;2.40;2.00;;;;;;;;;;5100097;28;20656;-66
2021/11/05 05:12:21;;;;;;;2.50;2.10;;;;;;;;;;5093849;28;20313;-65
2021/11/05 05:14:50;;;;;;;3.77;2.20;;;;;;;;;;5085473;28;20221;-66
2021/11/05 05:17:19;;;;;;;3.13;2.07;;;;;;;;;;5092881;28;20720;-66
2021/11/05 05:19:46;;;;;;;3.27;2.40;;;;;;;;;;5089101;28;20309;-66
2021/11/05 05:22:15;;;;;;;2.10;1.90;;;;;;;;;;5089703;28;20266;-66
2021/11/05 05:24:43;;;;;;;2.00;1.80;;;;;;;;;;5090394;28;20222;-66
2021/11/05 05:27:11;;;;;;;4.17;2.03;;;;;;;;;;5082510;28;20280;-66
2021/11/05 05:29:39;;;;;;;3.83;2.50;;;;;;;;;;5090309;28;20317;-67
2021/11/05 05:32:09;;;;;;;4.73;3.00;;;;;;;;;;5090053;28;20198;-67
2021/11/05 05:34:37;;;;;;;4.70;2.50;;;;;;;;;;5093699;28;20199;-66
2021/11/05 05:37:05;;;;;;;3.73;2.90;;;;;;;;;;5090609;28;20198;-66
2021/11/05 05:39:33;;;;;;;2.57;2.23;;;;;;;;;;5089913;28;20224;-66
2021/11/05 05:42:01;;;;;;;5.97;2.70;;;;;;;;;;5079014;28;20206;-66
2021/11/05 05:44:29;;;;;;;3.03;2.50;;;;;;;;;;5079044;28;20245;-66
2021/11/05 05:46:57;;;;;;;2.87;2.30;;;;;;;;;;5088784;28;20294;-66
2021/11/05 05:49:27;;;;;;;4.47;2.33;;;;;;;;;;5078630;28;20282;-66
2021/11/05 05:51:55;;;;;;;4.00;2.30;;;;;;;;;;5078931;28;20216;-66
2021/11/05 05:54:23;;;;;;;2.30;2.10;;;;;;;;;;5078982;28;20298;-65
2021/11/05 05:56:51;;;;;;;2.87;2.30;;;;;;;;;;5078609;28;20210;-66
2021/11/05 05:59:19;;;;;;;3.70;2.37;;;;;;;;;;5089244;28;20228;-65
2021/11/05 06:01:47;;;;;;;5.00;2.50;;;;;;;;;;5091716;28;20324;-66
2021/11/05 06:04:15;;;;;;;2.97;2.50;;;;;;;;;;5088855;28;20229;-65
2021/11/05 06:06:44;;;;;;;2.03;1.90;;;;;;;;;;5090856;28;20260;-65
2021/11/05 06:09:12;;;;;;;2.37;2.17;;;;;;;;;;5081386;28;20771;-65
2021/11/05 06:11:40;;;;;;;2.40;2.20;;;;;;;;;;5090859;28;20244;-65
2021/11/05 06:14:08;;;;;;;3.50;2.23;;;;;;;;;;5098463;28;20201;-65
2021/11/05 06:16:36;;;;;;;3.60;2.40;;;;;;;;;;5098386;28;20202;-65
2021/11/05 06:19:04;;;;;;;3.20;2.80;;;;;;;;;;5079847;28;20232;-65
2021/11/05 06:21:32;;;;;;;3.07;2.50;;;;;;;;;;5097374;28;20205;-65
2021/11/05 06:24:02;;;;;;;4.30;2.20;;;;;;;;;;5098494;28;20292;-65
2021/11/05 06:26:30;;;;;;;5.03;2.60;;;;;;;;;;5098389;28;20591;-64
2021/11/05 06:29:02;;;;;;;3.07;2.50;;;;;;;;;;5089579;28;20222;-65
2021/11/05 06:31:30;;;;;;;5.80;2.80;;;;;;;;;;5077952;28;20202;-65
2021/11/05 06:33:58;;;;;;;3.43;2.40;;;;;;;;;;5077829;28;20293;-65
2021/11/05 06:36:26;;;;;;;4.07;2.60;;;;;;;;;;5087351;28;20280;-65
2021/11/05 06:38:55;;;;;;;2.27;2.13;;;;;;;;;;5090933;28;20222;-64
2021/11/05 06:41:26;;;;;;;5.00;2.27;;;;;;;;;;5078094;28;20210;-64
2021/11/05 06:43:54;;;;;;;2.93;2.63;;;;;;;;;;5084402;28;20654;-64
2021/11/05 06:46:22;;;;;;;5.37;2.70;;;;;;;;;;5102875;28;20221;-65
2021/11/05 06:48:50;;;;;;;4.17;2.80;;;;;;;;;;5097462;28;20308;-64
2021/11/05 06:51:18;;;;;;;4.40;3.20;;;;;;;;;;5097435;28;20202;-65
2021/11/05 06:53:46;;;;;;;4.20;2.67;;;;;;;;;;5099053;28;20192;-64
2021/11/05 06:56:14;;;;;;;3.87;2.80;;;;;;;;;;5099333;28;20270;-65
2021/11/05 06:58:45;;;;;;;4.00;2.90;;;;;;;;;;5100357;28;20232;-65
2021/11/05 07:01:13;;;;;;;6.73;3.67;;;;;;;;;;5107434;28;20201;-65
2021/11/05 07:03:41;;;;;;;5.00;3.30;;;;;;;;;;5108011;28;20728;-65
2021/11/05 07:06:10;;;;;;;5.57;2.97;;;;;;;;;;5101986;28;20775;-65
2021/11/05 07:08:39;;;;;;;3.40;3.10;;;;;;;;;;5099048;28;20630;-65
2021/11/05 07:11:07;;;;;;;3.33;3.03;;;;;;;;;;5082214;28;20281;-65
2021/11/05 07:13:35;;;;;;;4.50;2.97;;;;;;;;;;5077421;28;20292;-65
2021/11/05 07:16:04;;;;;;;4.17;3.23;;;;;;;;;;5083895;28;20372;-65
2021/11/05 07:18:33;;;;;;;8.17;3.20;;;;;;;;;;5076672;28;20222;-65
2021/11/05 07:21:04;;;;;;;3.43;3.20;;;;;;;;;;5077268;28;20336;-65
2021/11/05 07:23:32;;;;;;;4.60;3.83;;;;;;;;;;5084493;28;20229;-65
2021/11/05 07:26:01;;;;;;;4.93;3.37;;;;;;;;;;5097389;28;20225;-65
2021/11/05 07:28:29;;;;;;;3.30;3.10;;;;;;;;;;5092718;28;20287;-64
2021/11/05 07:30:57;;;;;;;8.97;4.23;;;;;;;;;;5077288;28;20292;-65
2021/11/05 07:33:27;;;;;;;3.57;3.27;;;;;;;;;;5077349;28;20297;-65
2021/11/05 07:35:55;;;;;;;6.57;3.33;;;;;;;;;;5077431;28;20261;-65
2021/11/05 07:38:23;;;;;;;6.60;3.60;;;;;;;;;;5080207;28;20271;-65
2021/11/05 07:40:51;;;;;;;4.60;3.63;;;;;;;;;;5094381;28;20293;-65
2021/11/05 07:43:19;;;;;;;4.37;3.40;;;;;;;;;;5077475;28;20210;-65
2021/11/05 07:45:47;;;;;;;4.47;3.17;;;;;;;;;;5076990;28;20228;-66
2021/11/05 07:48:15;;;;;;;6.73;4.57;;;;;;;;;;5083656;28;20663;-65
2021/11/05 07:50:45;;;;;;;4.40;3.27;;;;;;;;;;5082995;28;20568;-64
2021/11/05 07:53:13;;;;;;;4.50;3.87;;;;;;;;;;5077220;28;20292;-64
2021/11/05 07:55:41;;;;;;;3.30;3.00;;;;;;;;;;5077146;28;20289;-64
2021/11/05 07:58:09;;;;;;;5.70;3.80;;;;;;;;;;5077093;28;20226;-65
2021/11/05 08:00:37;;;;;;;6.50;4.03;;;;;;;;;;5077237;28;20273;-65
2021/11/05 08:03:09;;;;;;;5.53;3.60;;;;;;;;;;5076573;28;20261;-64
2021/11/05 08:05:37;;;;;;;3.97;3.40;;;;;;;;;;5076937;28;20206;-65
2021/11/05 08:08:06;;;;;;;5.50;3.97;;;;;;;;;;5076868;28;20658;-64
2021/11/05 08:10:35;;;;;;;5.03;4.20;;;;;;;;;;5077001;28;20289;-64
2021/11/05 08:13:03;;;;;;;4.70;4.20;;;;;;;;;;5077032;28;20293;-65
2021/11/05 08:15:31;;;;;;;6.57;3.63;;;;;;;;;;5076799;28;20265;-64
2021/11/05 08:17:59;;;;;;;6.37;3.47;;;;;;;;;;5076713;28;20281;-65
2021/11/05 08:20:27;;;;;;;3.97;3.47;;;;;;;;;;5076375;28;20225;-64
2021/11/05 08:22:55;;;;;;;4.80;3.67;;;;;;;;;;5076915;28;20297;-64
2021/11/05 08:25:26;;;;;;;4.17;3.50;;;;;;;;;;5076723;28;20210;-65
2021/11/05 08:27:55;;;;;;;3.83;3.43;;;;;;;;;;5076477;28;20258;-64
2021/11/05 08:30:24;;;;;;;8.03;3.50;;;;;;;;;;5098418;28;20284;-64
2021/11/05 08:32:53;;;;;;;5.47;3.53;;;;;;;;;;5100678;28;20292;-65
2021/11/05 08:35:22;;;;;;;4.90;3.60;;;;;;;;;;5100134;28;20297;-65
2021/11/05 08:37:50;;;;;;;5.07;3.33;;;;;;;;;;5100462;28;20660;-65
2021/11/05 08:40:19;;;;;;;3.73;3.43;;;;;;;;;;5081302;28;20729;-65
2021/11/05 08:42:48;;;;;;;6.77;3.93;;;;;;;;;;5080247;28;20210;-65
2021/11/05 08:45:16;;;;;;;3.77;3.30;;;;;;;;;;5080130;28;20206;-65
2021/11/05 08:47:45;;;;;;;4.37;3.03;;;;;;;;;;5091114;28;20225;-65
2021/11/05 08:50:20;;;;;;;3.13;2.83;;;;;;;;;;5088621;28;20261;-65
2021/11/05 08:52:48;;;;;;;3.97;2.73;;;;;;;;;;5080312;28;20288;-65
2021/11/05 08:55:16;;;;;;;4.53;2.53;;;;;;;;;;5080223;28;20217;-65
2021/11/05 08:57:45;;;;;;;3.37;2.70;;;;;;;;;;5079989;28;20208;-65
2021/11/05 09:00:16;;;;;;;3.20;2.80;;;;;;;;;;5086554;28;20300;-64
2021/11/05 09:02:45;;;;;;;5.50;3.10;;;;;;;;;;5099701;28;20769;-64
2021/11/05 09:05:15;;;;;;;4.03;2.80;;;;;;;;;;5100379;28;20213;-65
2021/11/05 09:07:43;;;;;;;2.57;2.37;;;;;;;;;;5100033;28;20301;-65
2021/11/05 09:10:12;;;;;;;3.57;3.27;;;;;;;;;;5099854;28;20293;-65
2021/11/05 09:12:40;;;;;;;3.97;2.40;;;;;;;;;;5099883;28;20288;-65
2021/11/05 09:15:09;;;;;;;3.47;2.40;;;;;;;;;;5099879;28;20201;-65
2021/11/05 09:17:39;;;;;;;4.13;2.87;;;;;;;;;;5099166;28;20201;-64
2021/11/05 09:20:08;;;;;;;2.70;2.40;;;;;;;;;;5099900;28;20270;-65
2021/11/05 09:22:40;;;;;;;3.57;2.40;;;;;;;;;;5099690;28;20284;-65
2021/11/05 09:25:08;;;;;;;6.07;2.90;;;;;;;;;;5099769;28;20280;-65
2021/11/05 09:27:36;;;;;;;2.70;2.50;;;;;;;;;;5099513;28;20659;-64
2021/11/05 09:30:05;;;;;;;3.23;2.90;;;;;;;;;;5081391;28;20288;-64
2021/11/05 09:32:33;;;;;;;3.13;2.77;;;;;;;;;;5079083;28;20728;-65
2021/11/05 09:35:03;;;;;;;6.23;2.73;;;;;;;;;;5079234;28;20214;-65
2021/11/05 09:37:31;;;;;;;5.53;3.20;;;;;;;;;;5079093;28;20839;-65
2021/11/05 09:39:59;;;;;;;4.27;2.80;;;;;;;;;;5095371;28;20672;-65
2021/11/05 09:42:27;;;;;;;3.37;2.80;;;;;;;;;;5081000;28;20212;-65
2021/11/05 09:44:55;;;;;;;3.93;2.73;;;;;;;;;;5082264;28;20271;-65
2021/11/05 09:47:23;;;;;;;4.00;2.60;;;;;;;;;;5096517;28;20228;-65
2021/11/05 09:49:51;;;;;;;4.17;2.93;;;;;;;;;;5078968;28;20257;-65
2021/11/05 09:52:21;;;;;;;3.50;3.20;;;;;;;;;;5079040;28;20708;-64
2021/11/05 09:54:49;;;;;;;8.83;3.30;;;;;;;;;;5079134;28;20206;-65
2021/11/05 09:57:18;;;;;;;5.10;3.43;;;;;;;;;;5079234;28;20237;-65
2021/11/05 09:59:46;;;;;;;3.80;3.10;;;;;;;;;;5078971;28;20789;-65
2021/11/05 10:02:15;;;;;;;4.07;2.77;;;;;;;;;;5078644;28;20329;-65
2021/11/05 10:04:44;;;;;;;3.67;2.83;;;;;;;;;;5078877;28;20206;-65
2021/11/05 10:07:13;;;;;;;7.60;2.90;;;;;;;;;;5078596;28;20314;-65
2021/11/05 10:09:43;;;;;;;3.23;2.93;;;;;;;;;;5078706;28;20261;-65
2021/11/05 10:12:13;;;;;;;6.40;3.00;;;;;;;;;;5078575;28;20270;-65
2021/11/05 10:14:42;;;;;;;5.87;2.80;;;;;;;;;;5079007;28;20207;-65
2021/11/05 10:17:11;;;;;;;8.37;3.80;;;;;;;;;;5078398;28;20208;-65
2021/11/05 10:19:50;;;;;;;2.50;2.30;;;;;;;;;;5078334;28;20230;-65
2021/11/05 10:22:49;;;;;;;2.87;2.60;;;;;;;;;;5078505;28;20685;-65
2021/11/05 10:25:21;;;;;;;6.47;3.37;;;;;;;;;;5077611;28;20284;-65
2021/11/05 10:27:59;;;;;;;5.10;3.27;;;;;;;;;;5098795;28;20288;-65
2021/11/05 10:30:27;;;;;;;3.23;2.90;;;;;;;;;;5097931;28;20209;-64
2021/11/05 10:32:55;;;;;;;3.07;2.80;;;;;;;;;;5098461;28;20220;-65
2021/11/05 10:35:23;;;;;;;6.53;2.93;;;;;;;;;;5098393;28;20575;-65
2021/11/05 10:37:53;;;;;;;3.37;2.37;;;;;;;;;;5098692;28;20205;-65
2021/11/05 10:40:23;;;;;;;8.33;2.37;;;;;;;;;;5078996;28;20292;-65
2021/11/05 10:42:51;;;;;;;4.87;2.97;;;;;;;;;;5078389;28;20260;-65
2021/11/05 10:45:20;;;;;;;3.30;3.00;;;;;;;;;;5092487;28;20260;-64
2021/11/05 10:48:05;;;;;;;3.77;2.90;;;;;;;;;;5096576;28;20228;-65
2021/11/05 10:50:34;;;;;;;3.67;2.50;;;;;;;;;;5098229;28;20284;-64
2021/11/05 10:53:04;;;;;;;4.17;2.80;;;;;;;;;;5098411;28;20287;-65
2021/11/05 10:55:44;;;;;;;4.17;2.87;;;;;;;;;;5098043;28;20293;-65
2021/11/05 10:58:17;;;;;;;3.27;2.40;;;;;;;;;;5098086;28;20710;-65
2021/11/05 11:00:45;;;;;;;2.30;2.10;;;;;;;;;;5098458;28;20243;-64
2021/11/05 11:03:14;;;;;;;2.90;2.70;;;;;;;;;;5097831;28;20764;-65
2021/11/05 11:05:44;;;;;;;3.67;2.73;;;;;;;;;;5098020;28;20237;-65
2021/11/05 11:08:19;;;;;;;3.33;3.03;;;;;;;;;;5098098;28;20289;-65
2021/11/05 11:10:50;;;;;;;4.23;3.07;;;;;;;;;;5097356;28;20310;-65
2021/11/05 11:13:29;;;;;;;3.13;2.53;;;;;;;;;;5098133;28;20237;-65
2021/11/05 11:15:57;;;;;;;2.70;2.50;;;;;;;;;;5098265;28;20291;-64
2021/11/05 11:18:25;;;;;;;7.07;3.20;;;;;;;;;;5098831;28;20247;-64
2021/11/05 11:20:53;;;;;;;6.40;3.67;;;;;;;;;;5098056;28;20756;-65
2021/11/05 11:23:21;;;;;;;5.40;3.17;;;;;;;;;;5098410;28;20209;-65
2021/11/05 11:25:51;;;;;;;5.43;3.17;;;;;;;;;;5097495;28;20201;-65
2021/11/05 11:28:19;;;;;;;4.27;3.30;;;;;;;;;;5094293;28;20680;-65
2021/11/05 11:30:48;;;;;;;3.90;3.07;;;;;;;;;;5077751;28;20288;-65
2021/11/05 11:33:16;;;;;;;3.87;2.77;;;;;;;;;;5077300;28;20206;-65
2021/11/05 11:35:45;;;;;;;3.23;2.53;;;;;;;;;;5077338;28;20289;-65
2021/11/05 11:38:15;;;;;;;3.83;2.47;;;;;;;;;;5079131;28;20264;-65
2021/11/05 11:40:44;;;;;;;2.37;2.20;;;;;;;;;;5097503;28;20553;-64
2021/11/05 11:43:14;;;;;;;3.77;2.33;;;;;;;;;;5080486;28;20274;-65
2021/11/05 11:45:46;;;;;;;1.80;1.70;;;;;;;;;;5087177;28;20205;-65
2021/11/05 11:48:28;;;;;;;2.27;2.03;;;;;;;;;;5076379;28;20789;-64
2021/11/05 11:51:15;;;;;;;2.93;2.23;;;;;;;;;;5077121;28;20304;-65
2021/11/05 11:53:43;;;;;;;2.43;2.23;;;;;;;;;;5077513;28;20206;-65
2021/11/05 11:56:22;;;;;;;1.70;1.60;;;;;;;;;;5077016;28;20633;-65
2021/11/05 11:58:55;;;;;;;2.97;2.30;;;;;;;;;;5077074;28;20649;-65
2021/11/05 12:01:25;;;;;;;2.10;1.90;;;;;;;;;;5084280;28;20323;-65
2021/11/05 12:03:55;;;;;;;2.57;1.60;;;;;;;;;;5097462;28;20205;-65
2021/11/05 12:06:22;;;;;;;2.03;1.93;;;;;;;;;;5101040;28;20219;-65
2021/11/05 12:08:51;;;;;;;2.00;1.77;;;;;;;;;;5101071;28;20685;-65
2021/11/05 12:11:23;;;;;;;1.83;1.73;;;;;;;;;;5096514;28;20197;-66
2021/11/05 12:13:52;;;;;;;1.83;1.70;;;;;;;;;;5091890;28;20280;-65
2021/11/05 12:16:24;;;;;;;18.27;7.03;;;;;;;;;;5100970;28;20265;-65
2021/11/05 12:19:12;;;;;;;23.47;9.43;;;;;;;;;;5095578;28;20228;-66
2021/11/05 12:21:42;;;;;;;17.37;8.10;;;;;;;;;;5095498;28;20197;-65
2021/11/05 12:24:21;;;;;;;13.27;4.93;;;;;;;;;;5094412;28;20280;-66
2021/11/05 12:26:51;;;;;;;9.60;4.30;;;;;;;;;;5094609;28;20198;-65
2021/11/05 12:29:38;;;;;;;15.27;5.13;;;;;;;;;;5093660;28;20312;-65
2021/11/05 12:32:22;;;;;;;12.77;4.77;;;;;;;;;;5094261;28;20321;-65
2021/11/05 12:34:56;;;;;;;6.17;3.57;;;;;;;;;;5096820;28;20197;-65
2021/11/05 12:37:31;;;;;;;7.47;3.60;;;;;;;;;;5094409;28;20233;-65
2021/11/05 12:40:23;;;;;;;7.00;3.07;;;;;;;;;;5091835;28;20648;-65
2021/11/05 12:42:53;;;;;;;5.83;3.13;;;;;;;;;;5093539;28;20281;-65
2021/11/05 12:45:21;;;;;;;1.83;1.60;;;;;;;;;;5092291;28;20206;-66
2021/11/05 12:47:50;;;;;;;1.60;1.30;;;;;;;;;;5091354;28;20277;-66
2021/11/05 12:50:21;;;;;;;2.63;1.60;;;;;;;;;;5080134;28;20723;-65
2021/11/05 12:52:53;;;;;;;2.40;1.50;;;;;;;;;;5080473;28;20206;-65
2021/11/05 12:55:21;;;;;;;2.50;1.83;;;;;;;;;;5080493;28;20206;-65
2021/11/05 12:57:50;;;;;;;1.80;1.43;;;;;;;;;;5080408;28;20210;-65
2021/11/05 13:00:19;;;;;;;1.90;1.80;;;;;;;;;;5080137;28;20240;-65
2021/11/05 13:02:51;;;;;;;1.40;1.30;;;;;;;;;;5079571;28;20301;-65
2021/11/05 13:05:20;;;;;;;1.70;1.60;;;;;;;;;;5080289;28;20238;-65
2021/11/05 13:07:55;;;;;;;3.53;1.63;;;;;;;;;;5079953;28;20242;-65
2021/11/05 13:10:24;;;;;;;2.00;1.60;;;;;;;;;;5079874;28;20267;-66
2021/11/05 13:12:53;;;;;;;2.33;1.60;;;;;;;;;;5079888;28;20716;-65
2021/11/05 13:15:21;;;;;;;1.77;1.50;;;;;;;;;;5079724;28;20293;-65
2021/11/05 13:17:50;;;;;;;2.97;1.70;;;;;;;;;;5078214;28;20288;-65
2021/11/05 13:20:21;;;;;;;1.90;1.80;;;;;;;;;;5079777;28;20630;-65
2021/11/05 13:22:50;;;;;;;3.07;1.97;;;;;;;;;;5080695;28;20241;-65
2021/11/05 13:25:22;;;;;;;1.30;1.20;;;;;;;;;;5083451;28;20684;-65
2021/11/05 13:27:57;;;;;;;1.70;1.33;;;;;;;;;;5100286;28;20212;-66
2021/11/05 13:30:29;;;;;;;4.60;1.37;;;;;;;;;;5099429;28;20289;-65
2021/11/05 13:32:57;;;;;;;1.73;1.00;;;;;;;;;;5099706;28;20209;-65
2021/11/05 13:35:27;;;;;;;1.63;1.53;;;;;;;;;;5099723;28;20209;-65
2021/11/05 13:38:02;;;;;;;1.07;1.07;;;;;;;;;;5099777;28;20205;-66
2021/11/05 13:40:30;;;;;;;1.83;1.20;;;;;;;;;;5088033;28;20239;-65
2021/11/05 13:43:07;;;;;;;2.17;1.30;;;;;;;;;;5099826;28;20218;-65
2021/11/05 13:45:42;;;;;;;2.20;1.33;;;;;;;;;;5099906;28;20211;-65
2021/11/05 13:48:14;;;;;;;3.47;1.50;;;;;;;;;;5099378;28;20236;-65
2021/11/05 13:50:44;;;;;;;3.73;1.80;;;;;;;;;;5099378;28;20221;-66
2021/11/05 13:53:16;;;;;;;4.17;1.67;;;;;;;;;;5099609;28;20269;-66
2021/11/05 13:55:44;;;;;;;5.40;2.90;;;;;;;;;;5099383;28;20216;-66
2021/11/05 13:58:23;;;;;;;4.53;2.97;;;;;;;;;;5099415;28;20248;-65
2021/11/05 14:00:51;;;;;;;5.60;2.07;;;;;;;;;;5099425;28;20197;-65
2021/11/05 14:03:24;;;;;;;2.03;1.70;;;;;;;;;;5098515;28;20244;-65
2021/11/05 14:05:54;;;;;;;3.47;2.00;;;;;;;;;;5099011;28;20297;-65
2021/11/05 14:08:22;;;;;;;2.53;1.67;;;;;;;;;;5099239;28;20316;-66
2021/11/05 14:10:54;;;;;;;2.73;2.43;;;;;;;;;;5098782;28;20587;-65
2021/11/05 14:13:23;;;;;;;2.93;2.07;;;;;;;;;;5099211;28;20269;-65
2021/11/05 14:15:52;;;;;;;2.30;2.07;;;;;;;;;;5096310;28;20300;-65
2021/11/05 14:18:21;;;;;;;1.70;1.60;;;;;;;;;;5091167;28;20304;-65
2021/11/05 14:20:50;;;;;;;2.30;1.90;;;;;;;;;;5092295;28;20285;-65
2021/11/05 14:23:28;;;;;;;2.33;2.13;;;;;;;;;;5094886;28;20284;-65
2021/11/05 14:25:56;;;;;;;2.37;1.73;;;;;;;;;;5098192;28;20197;-65
2021/11/05 14:28:24;;;;;;;1.87;1.77;;;;;;;;;;5092230;28;20593;-65
2021/11/05 14:30:59;;;;;;;2.03;1.80;;;;;;;;;;5096737;28;20239;-66
2021/11/05 14:33:27;;;;;;;3.37;2.23;;;;;;;;;;5092364;28;20193;-65
2021/11/05 14:35:57;;;;;;;2.27;2.17;;;;;;;;;;5097033;28;20205;-65
2021/11/05 14:38:26;;;;;;;1.90;1.57;;;;;;;;;;5091424;28;20254;-64
2021/11/05 14:40:59;;;;;;;3.47;1.90;;;;;;;;;;5096580;28;20289;-64
2021/11/05 14:43:27;;;;;;;2.00;1.70;;;;;;;;;;5088314;28;20202;-65
2021/11/05 14:46:08;;;;;;;3.13;2.00;;;;;;;;;;5078101;28;20307;-65
2021/11/05 14:48:37;;;;;;;2.13;1.73;;;;;;;;;;5086519;28;20225;-65
2021/11/05 14:51:08;;;;;;;4.40;2.47;;;;;;;;;;5096158;28;20224;-64
2021/11/05 14:53:38;;;;;;;3.50;2.00;;;;;;;;;;5096124;28;20609;-64
2021/11/05 14:56:07;;;;;;;3.00;1.67;;;;;;;;;;5095307;28;20232;-65